Pays
Station

 

Conditions  météo  pour  Lovelock, Derby Field  -  Etats-Unis    Etats-Unis

  
-3 °C
    
 
 

METAR pour Lovelock, Derby Field :

KLOL 191153Z AUTO 11004KT 10SM CLR M03/M06 A3033 RMK AO2 SLP280 T10281056 10044 21033 51003

 

Voici le bulletin pour Lovelock, Derby Field - Etats-Unis.
 
Le bulletin a été fait il y a 7 minutes, à 11:53 UTC .
Le vent soufflait à la vitesse de 2.1 mètres par seconde de Est/Sud-est (110°).
 
La température était de -3 °C, avec un point de rosée à -6 °C.
La température ressentie était de -6 °C.
 
La pression atmosphérique était de 1027 hPa.
L'humidité relative était de 79.7%.
 
Le ciel était clair.
 
La visibilité globale était de 16.1 kilomètres.
 

 
 
 

Pays :   A   B   C   D   E   F   G   H   I   J   K   L   M   N   O   P   Q   R   S   T   U   V   W   Y   Z

 

Partenaires :  Info Météo avec Met'info
Météo Marine avec MeteoMarine.net
Infos Site  |  Infos Légales  |  Crédits  |  Confidentialité
Contactez-nous  |  Ajouter aux favoris
© 2013-2018 METAR - Tous droits réservés